sensor_id;sensor_type;location;lat;lon;timestamp;temperature;humidity
31391;DHT22;18022;45.492;11.548;2022-08-03T00:01:50;22.70;99.90
31391;DHT22;18022;45.492;11.548;2022-08-03T00:04:15;22.70;99.90
31391;DHT22;18022;45.492;11.548;2022-08-03T00:06:41;22.80;99.90
31391;DHT22;18022;45.492;11.548;2022-08-03T00:09:07;22.70;99.90
31391;DHT22;18022;45.492;11.548;2022-08-03T00:11:34;22.50;99.90
31391;DHT22;18022;45.492;11.548;2022-08-03T00:14:00;22.70;99.90
31391;DHT22;18022;45.492;11.548;2022-08-03T00:16:26;22.70;99.90
31391;DHT22;18022;45.492;11.548;2022-08-03T00:18:51;22.60;99.90
31391;DHT22;18022;45.492;11.548;2022-08-03T00:21:17;22.60;99.90
31391;DHT22;18022;45.492;11.548;2022-08-03T00:23:43;22.40;99.90
31391;DHT22;18022;45.492;11.548;2022-08-03T00:26:08;22.50;99.90
31391;DHT22;18022;45.492;11.548;2022-08-03T00:28:34;22.40;99.90
31391;DHT22;18022;45.492;11.548;2022-08-03T00:31:00;22.40;99.90
31391;DHT22;18022;45.492;11.548;2022-08-03T00:33:25;22.40;99.90
31391;DHT22;18022;45.492;11.548;2022-08-03T00:35:51;22.40;99.90
31391;DHT22;18022;45.492;11.548;2022-08-03T00:38:18;22.40;99.90
31391;DHT22;18022;45.492;11.548;2022-08-03T00:40:44;22.40;99.90
31391;DHT22;18022;45.492;11.548;2022-08-03T00:43:09;22.40;99.90
31391;DHT22;18022;45.492;11.548;2022-08-03T00:45:39;22.50;99.90
31391;DHT22;18022;45.492;11.548;2022-08-03T00:48:08;22.30;99.90
31391;DHT22;18022;45.492;11.548;2022-08-03T00:50:37;22.20;99.90
31391;DHT22;18022;45.492;11.548;2022-08-03T00:53:05;22.20;99.90
31391;DHT22;18022;45.492;11.548;2022-08-03T00:55:31;22.10;99.90
31391;DHT22;18022;45.492;11.548;2022-08-03T00:57:57;22.30;99.90
31391;DHT22;18022;45.492;11.548;2022-08-03T01:00:25;22.20;99.90
31391;DHT22;18022;45.492;11.548;2022-08-03T01:02:52;22.20;99.90
31391;DHT22;18022;45.492;11.548;2022-08-03T01:05:19;22.20;99.90
31391;DHT22;18022;45.492;11.548;2022-08-03T01:10:40;22.10;99.90
31391;DHT22;18022;45.492;11.548;2022-08-03T01:13:16;22.10;99.90
31391;DHT22;18022;45.492;11.548;2022-08-03T01:15:44;22.00;99.90
31391;DHT22;18022;45.492;11.548;2022-08-03T01:18:21;21.90;99.90
31391;DHT22;18022;45.492;11.548;2022-08-03T01:20:51;21.80;99.90
31391;DHT22;18022;45.492;11.548;2022-08-03T01:31:42;22.10;99.90
31391;DHT22;18022;45.492;11.548;2022-08-03T01:34:13;22.20;99.90
31391;DHT22;18022;45.492;11.548;2022-08-03T01:36:45;22.00;99.90
31391;DHT22;18022;45.492;11.548;2022-08-03T01:39:15;21.70;99.90
31391;DHT22;18022;45.492;11.548;2022-08-03T01:41:48;21.90;99.90
31391;DHT22;18022;45.492;11.548;2022-08-03T01:44:15;21.90;99.90
31391;DHT22;18022;45.492;11.548;2022-08-03T01:46:42;21.90;99.90
31391;DHT22;18022;45.492;11.548;2022-08-03T01:49:10;21.90;99.90
31391;DHT22;18022;45.492;11.548;2022-08-03T01:51:40;21.90;99.90
31391;DHT22;18022;45.492;11.548;2022-08-03T01:54:08;21.80;99.90
31391;DHT22;18022;45.492;11.548;2022-08-03T01:56:35;21.80;99.90
31391;DHT22;18022;45.492;11.548;2022-08-03T01:59:01;21.80;99.90
31391;DHT22;18022;45.492;11.548;2022-08-03T02:01:28;21.70;99.90
31391;DHT22;18022;45.492;11.548;2022-08-03T02:03:58;21.70;99.90
31391;DHT22;18022;45.492;11.548;2022-08-03T02:06:25;21.60;99.90
31391;DHT22;18022;45.492;11.548;2022-08-03T02:08:52;21.60;99.90
31391;DHT22;18022;45.492;11.548;2022-08-03T02:11:19;21.50;99.90
31391;DHT22;18022;45.492;11.548;2022-08-03T02:13:47;21.50;99.90
31391;DHT22;18022;45.492;11.548;2022-08-03T02:16:13;21.50;99.90
31391;DHT22;18022;45.492;11.548;2022-08-03T02:18:42;21.50;99.90
31391;DHT22;18022;45.492;11.548;2022-08-03T02:21:09;21.50;99.90
31391;DHT22;18022;45.492;11.548;2022-08-03T02:23:37;21.50;99.90
31391;DHT22;18022;45.492;11.548;2022-08-03T02:26:13;21.40;99.90
31391;DHT22;18022;45.492;11.548;2022-08-03T02:28:42;21.30;99.90
31391;DHT22;18022;45.492;11.548;2022-08-03T02:31:15;21.40;99.90
31391;DHT22;18022;45.492;11.548;2022-08-03T02:33:46;21.50;99.90
31391;DHT22;18022;45.492;11.548;2022-08-03T02:36:14;21.40;99.90
31391;DHT22;18022;45.492;11.548;2022-08-03T02:38:42;21.40;99.90
31391;DHT22;18022;45.492;11.548;2022-08-03T02:41:22;21.40;99.90
31391;DHT22;18022;45.492;11.548;2022-08-03T02:43:51;21.50;99.90
31391;DHT22;18022;45.492;11.548;2022-08-03T02:46:19;21.50;99.90
31391;DHT22;18022;45.492;11.548;2022-08-03T02:48:47;21.50;99.90
31391;DHT22;18022;45.492;11.548;2022-08-03T02:51:15;21.50;99.90
31391;DHT22;18022;45.492;11.548;2022-08-03T02:53:44;21.50;99.90
31391;DHT22;18022;45.492;11.548;2022-08-03T02:56:11;21.50;99.90
31391;DHT22;18022;45.492;11.548;2022-08-03T02:58:39;21.40;99.90
31391;DHT22;18022;45.492;11.548;2022-08-03T03:01:07;21.40;99.90
31391;DHT22;18022;45.492;11.548;2022-08-03T03:03:34;21.50;99.90
31391;DHT22;18022;45.492;11.548;2022-08-03T03:06:01;21.30;99.90
31391;DHT22;18022;45.492;11.548;2022-08-03T03:08:27;21.30;99.90
31391;DHT22;18022;45.492;11.548;2022-08-03T03:10:55;21.30;99.90
31391;DHT22;18022;45.492;11.548;2022-08-03T03:13:22;21.30;99.90
31391;DHT22;18022;45.492;11.548;2022-08-03T03:15:48;21.40;99.90
31391;DHT22;18022;45.492;11.548;2022-08-03T03:18:16;21.30;99.90
31391;DHT22;18022;45.492;11.548;2022-08-03T03:20:42;21.30;99.90
31391;DHT22;18022;45.492;11.548;2022-08-03T03:23:10;21.30;99.90
31391;DHT22;18022;45.492;11.548;2022-08-03T03:25:36;21.20;99.90
31391;DHT22;18022;45.492;11.548;2022-08-03T03:28:03;21.20;99.90
31391;DHT22;18022;45.492;11.548;2022-08-03T03:30:29;21.20;99.90
31391;DHT22;18022;45.492;11.548;2022-08-03T03:32:56;21.20;99.90
31391;DHT22;18022;45.492;11.548;2022-08-03T03:35:22;21.30;99.90
31391;DHT22;18022;45.492;11.548;2022-08-03T03:37:48;21.40;99.90
31391;DHT22;18022;45.492;11.548;2022-08-03T03:40:14;21.30;99.90
31391;DHT22;18022;45.492;11.548;2022-08-03T03:42:42;21.30;99.90
31391;DHT22;18022;45.492;11.548;2022-08-03T03:45:08;21.30;99.90
31391;DHT22;18022;45.492;11.548;2022-08-03T03:47:34;21.30;99.90
31391;DHT22;18022;45.492;11.548;2022-08-03T03:50:04;21.10;99.90
31391;DHT22;18022;45.492;11.548;2022-08-03T03:52:33;21.10;99.90
31391;DHT22;18022;45.492;11.548;2022-08-03T03:54:59;20.90;99.90
31391;DHT22;18022;45.492;11.548;2022-08-03T03:57:24;20.80;99.90
31391;DHT22;18022;45.492;11.548;2022-08-03T03:59:50;20.80;99.90
31391;DHT22;18022;45.492;11.548;2022-08-03T04:02:16;20.80;99.90
31391;DHT22;18022;45.492;11.548;2022-08-03T04:04:42;20.90;99.90
31391;DHT22;18022;45.492;11.548;2022-08-03T04:07:27;20.90;99.90
31391;DHT22;18022;45.492;11.548;2022-08-03T04:10:19;21.00;99.90
31391;DHT22;18022;45.492;11.548;2022-08-03T04:13:07;21.00;99.90
31391;DHT22;18022;45.492;11.548;2022-08-03T04:15:38;20.90;99.90
31391;DHT22;18022;45.492;11.548;2022-08-03T04:18:06;20.90;99.90
31391;DHT22;18022;45.492;11.548;2022-08-03T04:20:34;20.90;99.90
31391;DHT22;18022;45.492;11.548;2022-08-03T04:23:02;20.90;99.90
31391;DHT22;18022;45.492;11.548;2022-08-03T04:25:31;20.90;99.90
31391;DHT22;18022;45.492;11.548;2022-08-03T04:27:59;20.90;99.90
31391;DHT22;18022;45.492;11.548;2022-08-03T04:30:26;20.90;99.90
31391;DHT22;18022;45.492;11.548;2022-08-03T04:32:55;20.80;99.90
31391;DHT22;18022;45.492;11.548;2022-08-03T04:35:23;20.80;99.90
31391;DHT22;18022;45.492;11.548;2022-08-03T04:37:51;20.70;99.90
31391;DHT22;18022;45.492;11.548;2022-08-03T04:40:27;20.80;99.90
31391;DHT22;18022;45.492;11.548;2022-08-03T04:42:55;20.80;99.90
31391;DHT22;18022;45.492;11.548;2022-08-03T04:45:21;20.90;99.90
31391;DHT22;18022;45.492;11.548;2022-08-03T04:47:49;20.90;99.90
31391;DHT22;18022;45.492;11.548;2022-08-03T04:50:16;20.90;99.90
31391;DHT22;18022;45.492;11.548;2022-08-03T04:52:42;20.90;99.90
31391;DHT22;18022;45.492;11.548;2022-08-03T04:55:08;21.00;99.90
31391;DHT22;18022;45.492;11.548;2022-08-03T04:57:34;21.00;99.90
31391;DHT22;18022;45.492;11.548;2022-08-03T05:00:00;21.10;99.90
31391;DHT22;18022;45.492;11.548;2022-08-03T05:02:25;21.00;99.90
31391;DHT22;18022;45.492;11.548;2022-08-03T05:04:51;21.10;99.90
31391;DHT22;18022;45.492;11.548;2022-08-03T05:07:17;21.10;99.90
31391;DHT22;18022;45.492;11.548;2022-08-03T05:09:44;21.10;99.90
31391;DHT22;18022;45.492;11.548;2022-08-03T05:12:10;21.10;99.90
31391;DHT22;18022;45.492;11.548;2022-08-03T05:14:37;21.20;99.90
31391;DHT22;18022;45.492;11.548;2022-08-03T05:17:06;21.20;99.90
31391;DHT22;18022;45.492;11.548;2022-08-03T05:19:32;21.30;99.90
31391;DHT22;18022;45.492;11.548;2022-08-03T05:21:58;21.40;99.90
31391;DHT22;18022;45.492;11.548;2022-08-03T05:24:24;21.40;99.90
31391;DHT22;18022;45.492;11.548;2022-08-03T05:26:50;21.50;99.90
31391;DHT22;18022;45.492;11.548;2022-08-03T05:29:16;21.60;99.90
31391;DHT22;18022;45.492;11.548;2022-08-03T05:31:41;21.60;99.90
31391;DHT22;18022;45.492;11.548;2022-08-03T05:34:07;21.60;99.90
31391;DHT22;18022;45.492;11.548;2022-08-03T05:36:33;21.80;99.90
31391;DHT22;18022;45.492;11.548;2022-08-03T05:38:58;21.90;99.90
31391;DHT22;18022;45.492;11.548;2022-08-03T05:41:24;22.00;99.90
31391;DHT22;18022;45.492;11.548;2022-08-03T05:43:53;22.00;99.90
31391;DHT22;18022;45.492;11.548;2022-08-03T05:46:23;22.20;99.90
31391;DHT22;18022;45.492;11.548;2022-08-03T05:48:49;22.30;99.90
31391;DHT22;18022;45.492;11.548;2022-08-03T05:51:15;22.40;99.90
31391;DHT22;18022;45.492;11.548;2022-08-03T05:53:41;22.50;99.90
31391;DHT22;18022;45.492;11.548;2022-08-03T05:56:08;22.60;99.90
31391;DHT22;18022;45.492;11.548;2022-08-03T05:58:34;22.70;99.90
31391;DHT22;18022;45.492;11.548;2022-08-03T06:00:59;22.70;99.90
31391;DHT22;18022;45.492;11.548;2022-08-03T06:03:25;22.80;99.90
31391;DHT22;18022;45.492;11.548;2022-08-03T06:05:53;22.90;99.90
31391;DHT22;18022;45.492;11.548;2022-08-03T06:08:20;23.00;99.90
31391;DHT22;18022;45.492;11.548;2022-08-03T06:10:45;23.00;99.90
31391;DHT22;18022;45.492;11.548;2022-08-03T06:13:11;23.20;99.90
31391;DHT22;18022;45.492;11.548;2022-08-03T06:15:37;23.20;99.90
31391;DHT22;18022;45.492;11.548;2022-08-03T06:18:02;23.40;99.90
31391;DHT22;18022;45.492;11.548;2022-08-03T06:20:28;23.40;99.90
31391;DHT22;18022;45.492;11.548;2022-08-03T06:22:54;23.50;99.90
31391;DHT22;18022;45.492;11.548;2022-08-03T06:25:20;23.50;99.90
31391;DHT22;18022;45.492;11.548;2022-08-03T06:27:46;23.60;99.90
31391;DHT22;18022;45.492;11.548;2022-08-03T06:30:12;23.70;99.90
31391;DHT22;18022;45.492;11.548;2022-08-03T06:32:40;23.80;99.90
31391;DHT22;18022;45.492;11.548;2022-08-03T06:35:07;23.90;99.90
31391;DHT22;18022;45.492;11.548;2022-08-03T06:37:49;24.00;99.90
31391;DHT22;18022;45.492;11.548;2022-08-03T06:40:18;24.10;99.90
31391;DHT22;18022;45.492;11.548;2022-08-03T06:42:44;24.20;99.90
31391;DHT22;18022;45.492;11.548;2022-08-03T06:45:11;24.30;99.90
31391;DHT22;18022;45.492;11.548;2022-08-03T06:47:38;24.30;99.90
31391;DHT22;18022;45.492;11.548;2022-08-03T06:50:05;24.40;99.90
31391;DHT22;18022;45.492;11.548;2022-08-03T06:52:31;24.50;99.90
31391;DHT22;18022;45.492;11.548;2022-08-03T06:54:57;24.50;99.90
31391;DHT22;18022;45.492;11.548;2022-08-03T06:57:23;24.60;99.90
31391;DHT22;18022;45.492;11.548;2022-08-03T06:59:49;24.70;99.90
31391;DHT22;18022;45.492;11.548;2022-08-03T07:02:15;24.80;99.90
31391;DHT22;18022;45.492;11.548;2022-08-03T07:04:42;24.80;99.90
31391;DHT22;18022;45.492;11.548;2022-08-03T07:07:08;24.90;99.90
31391;DHT22;18022;45.492;11.548;2022-08-03T07:09:34;25.00;99.90
31391;DHT22;18022;45.492;11.548;2022-08-03T07:11:59;25.00;99.90
31391;DHT22;18022;45.492;11.548;2022-08-03T07:14:27;25.20;99.90
31391;DHT22;18022;45.492;11.548;2022-08-03T07:16:52;25.30;99.90
31391;DHT22;18022;45.492;11.548;2022-08-03T07:19:18;25.30;99.90
31391;DHT22;18022;45.492;11.548;2022-08-03T07:21:44;25.40;99.90
31391;DHT22;18022;45.492;11.548;2022-08-03T07:24:10;25.50;99.90
31391;DHT22;18022;45.492;11.548;2022-08-03T07:26:35;25.60;99.90
31391;DHT22;18022;45.492;11.548;2022-08-03T07:29:01;25.70;99.90
31391;DHT22;18022;45.492;11.548;2022-08-03T07:31:27;25.80;99.90
31391;DHT22;18022;45.492;11.548;2022-08-03T07:33:52;25.90;99.50
31391;DHT22;18022;45.492;11.548;2022-08-03T07:36:18;26.10;98.10
31391;DHT22;18022;45.492;11.548;2022-08-03T07:38:44;26.20;97.60
31391;DHT22;18022;45.492;11.548;2022-08-03T07:41:09;26.40;98.60
31391;DHT22;18022;45.492;11.548;2022-08-03T07:43:35;26.40;97.80
31391;DHT22;18022;45.492;11.548;2022-08-03T07:46:03;26.60;97.20
31391;DHT22;18022;45.492;11.548;2022-08-03T07:48:29;26.70;96.70
31391;DHT22;18022;45.492;11.548;2022-08-03T07:50:54;26.80;95.50
31391;DHT22;18022;45.492;11.548;2022-08-03T07:53:20;26.80;95.20
31391;DHT22;18022;45.492;11.548;2022-08-03T07:55:46;26.80;95.10
31391;DHT22;18022;45.492;11.548;2022-08-03T07:58:12;26.90;95.60
31391;DHT22;18022;45.492;11.548;2022-08-03T08:00:40;26.90;95.90
31391;DHT22;18022;45.492;11.548;2022-08-03T08:03:06;27.00;95.90
31391;DHT22;18022;45.492;11.548;2022-08-03T08:05:33;27.00;95.90
31391;DHT22;18022;45.492;11.548;2022-08-03T08:07:59;27.10;95.80
31391;DHT22;18022;45.492;11.548;2022-08-03T08:10:25;27.10;95.50
31391;DHT22;18022;45.492;11.548;2022-08-03T08:12:51;27.20;95.50
31391;DHT22;18022;45.492;11.548;2022-08-03T08:15:17;27.30;96.20
31391;DHT22;18022;45.492;11.548;2022-08-03T08:17:47;27.40;94.90
31391;DHT22;18022;45.492;11.548;2022-08-03T08:20:18;27.40;94.90
31391;DHT22;18022;45.492;11.548;2022-08-03T08:22:44;27.50;94.50
31391;DHT22;18022;45.492;11.548;2022-08-03T08:25:10;27.60;94.60
31391;DHT22;18022;45.492;11.548;2022-08-03T08:27:43;27.70;94.80
31391;DHT22;18022;45.492;11.548;2022-08-03T08:30:10;27.80;94.30
31391;DHT22;18022;45.492;11.548;2022-08-03T08:32:36;27.80;93.90
31391;DHT22;18022;45.492;11.548;2022-08-03T08:35:06;27.80;94.50
31391;DHT22;18022;45.492;11.548;2022-08-03T08:37:32;27.90;93.20
31391;DHT22;18022;45.492;11.548;2022-08-03T08:39:58;28.10;93.30
31391;DHT22;18022;45.492;11.548;2022-08-03T08:42:24;28.10;92.80
31391;DHT22;18022;45.492;11.548;2022-08-03T08:44:50;28.20;93.20
31391;DHT22;18022;45.492;11.548;2022-08-03T08:47:18;28.20;93.10
31391;DHT22;18022;45.492;11.548;2022-08-03T08:49:45;28.30;93.10
31391;DHT22;18022;45.492;11.548;2022-08-03T08:52:12;28.30;93.20
31391;DHT22;18022;45.492;11.548;2022-08-03T08:54:40;28.20;93.40
31391;DHT22;18022;45.492;11.548;2022-08-03T08:57:06;28.20;92.90
31391;DHT22;18022;45.492;11.548;2022-08-03T08:59:34;28.40;92.90
31391;DHT22;18022;45.492;11.548;2022-08-03T09:02:00;28.50;93.40
31391;DHT22;18022;45.492;11.548;2022-08-03T09:04:27;28.60;93.20
31391;DHT22;18022;45.492;11.548;2022-08-03T09:06:54;28.70;92.60
31391;DHT22;18022;45.492;11.548;2022-08-03T09:09:20;28.80;92.80
31391;DHT22;18022;45.492;11.548;2022-08-03T09:11:47;28.90;92.90
31391;DHT22;18022;45.492;11.548;2022-08-03T09:14:13;28.90;93.20
31391;DHT22;18022;45.492;11.548;2022-08-03T09:16:55;29.00;93.10
31391;DHT22;18022;45.492;11.548;2022-08-03T09:19:24;28.90;92.40
31391;DHT22;18022;45.492;11.548;2022-08-03T09:24:32;29.00;93.00
31391;DHT22;18022;45.492;11.548;2022-08-03T09:26:58;29.10;93.10
31391;DHT22;18022;45.492;11.548;2022-08-03T09:29:24;29.20;92.50
31391;DHT22;18022;45.492;11.548;2022-08-03T09:32:02;29.20;92.40
31391;DHT22;18022;45.492;11.548;2022-08-03T09:34:28;29.20;92.20
31391;DHT22;18022;45.492;11.548;2022-08-03T09:36:55;29.30;92.80
31391;DHT22;18022;45.492;11.548;2022-08-03T09:39:24;29.30;92.10
31391;DHT22;18022;45.492;11.548;2022-08-03T09:44:43;29.50;92.00
31391;DHT22;18022;45.492;11.548;2022-08-03T09:47:11;29.50;92.70
31391;DHT22;18022;45.492;11.548;2022-08-03T09:49:41;29.50;92.00
31391;DHT22;18022;45.492;11.548;2022-08-03T09:52:15;29.60;92.50
31391;DHT22;18022;45.492;11.548;2022-08-03T09:54:43;29.70;92.10
31391;DHT22;18022;45.492;11.548;2022-08-03T09:57:23;29.70;92.10
31391;DHT22;18022;45.492;11.548;2022-08-03T09:59:50;29.70;90.70
31391;DHT22;18022;45.492;11.548;2022-08-03T10:02:26;29.80;90.80
31391;DHT22;18022;45.492;11.548;2022-08-03T10:04:52;29.80;91.50
31391;DHT22;18022;45.492;11.548;2022-08-03T10:07:22;29.80;90.70
31391;DHT22;18022;45.492;11.548;2022-08-03T10:09:57;29.90;92.20
31391;DHT22;18022;45.492;11.548;2022-08-03T10:12:24;30.20;92.00
31391;DHT22;18022;45.492;11.548;2022-08-03T10:14:50;30.20;90.60
31391;DHT22;18022;45.492;11.548;2022-08-03T10:17:17;30.10;90.70
31391;DHT22;18022;45.492;11.548;2022-08-03T10:19:43;30.10;90.50
31391;DHT22;18022;45.492;11.548;2022-08-03T10:22:22;30.10;90.30
31391;DHT22;18022;45.492;11.548;2022-08-03T10:25:08;30.10;90.20
31391;DHT22;18022;45.492;11.548;2022-08-03T10:27:38;30.40;91.90
31391;DHT22;18022;45.492;11.548;2022-08-03T10:30:06;30.70;91.00
31391;DHT22;18022;45.492;11.548;2022-08-03T10:32:43;30.80;90.30
31391;DHT22;18022;45.492;11.548;2022-08-03T10:35:15;31.00;87.80
31391;DHT22;18022;45.492;11.548;2022-08-03T10:40:17;30.70;90.10
31391;DHT22;18022;45.492;11.548;2022-08-03T10:42:46;30.90;88.90
31391;DHT22;18022;45.492;11.548;2022-08-03T10:45:23;30.90;90.50
31391;DHT22;18022;45.492;11.548;2022-08-03T10:47:51;31.00;89.40
31391;DHT22;18022;45.492;11.548;2022-08-03T10:50:17;30.90;89.40
31391;DHT22;18022;45.492;11.548;2022-08-03T10:53:04;30.80;90.00
31391;DHT22;18022;45.492;11.548;2022-08-03T10:55:43;30.90;88.00
31391;DHT22;18022;45.492;11.548;2022-08-03T11:01:07;31.30;89.60
31391;DHT22;18022;45.492;11.548;2022-08-03T11:03:47;31.50;89.80
31391;DHT22;18022;45.492;11.548;2022-08-03T11:06:24;31.60;89.40
31391;DHT22;18022;45.492;11.548;2022-08-03T11:11:38;31.70;88.80
31391;DHT22;18022;45.492;11.548;2022-08-03T11:14:19;31.80;89.20
31391;DHT22;18022;45.492;11.548;2022-08-03T11:16:48;32.00;87.90
31391;DHT22;18022;45.492;11.548;2022-08-03T11:19:18;32.00;87.30
31391;DHT22;18022;45.492;11.548;2022-08-03T11:30:03;32.00;86.90
31391;DHT22;18022;45.492;11.548;2022-08-03T11:35:15;31.60;86.90
31391;DHT22;18022;45.492;11.548;2022-08-03T11:43:53;32.30;86.50
31391;DHT22;18022;45.492;11.548;2022-08-03T11:46:16;32.30;86.50
31391;DHT22;18022;45.492;11.548;2022-08-03T11:48:45;31.80;85.80
31391;DHT22;18022;45.492;11.548;2022-08-03T11:51:37;31.70;87.50
31391;DHT22;18022;45.492;11.548;2022-08-03T11:54:05;32.00;85.10
31391;DHT22;18022;45.492;11.548;2022-08-03T11:56:48;31.90;87.10
31391;DHT22;18022;45.492;11.548;2022-08-03T11:59:14;32.10;87.40
31391;DHT22;18022;45.492;11.548;2022-08-03T12:01:42;32.30;86.70
31391;DHT22;18022;45.492;11.548;2022-08-03T12:04:08;32.60;86.00
31391;DHT22;18022;45.492;11.548;2022-08-03T12:06:35;32.80;86.20
31391;DHT22;18022;45.492;11.548;2022-08-03T12:09:20;32.90;85.60
31391;DHT22;18022;45.492;11.548;2022-08-03T12:11:49;32.80;82.90
31391;DHT22;18022;45.492;11.548;2022-08-03T12:14:16;32.70;84.10
31391;DHT22;18022;45.492;11.548;2022-08-03T12:16:46;32.30;84.60
31391;DHT22;18022;45.492;11.548;2022-08-03T12:19:13;32.40;85.60
31391;DHT22;18022;45.492;11.548;2022-08-03T12:21:48;32.60;85.00
31391;DHT22;18022;45.492;11.548;2022-08-03T12:24:15;32.80;84.20
31391;DHT22;18022;45.492;11.548;2022-08-03T12:26:49;32.60;82.80
31391;DHT22;18022;45.492;11.548;2022-08-03T12:29:18;32.40;84.10
31391;DHT22;18022;45.492;11.548;2022-08-03T12:31:44;32.50;83.50
31391;DHT22;18022;45.492;11.548;2022-08-03T12:34:10;32.60;83.90
31391;DHT22;18022;45.492;11.548;2022-08-03T12:36:36;32.70;85.00
31391;DHT22;18022;45.492;11.548;2022-08-03T12:39:07;32.80;83.80
31391;DHT22;18022;45.492;11.548;2022-08-03T12:41:38;32.60;81.70
31391;DHT22;18022;45.492;11.548;2022-08-03T12:44:06;32.40;81.00
31391;DHT22;18022;45.492;11.548;2022-08-03T12:46:38;32.40;82.40
31391;DHT22;18022;45.492;11.548;2022-08-03T12:49:05;32.60;81.20
31391;DHT22;18022;45.492;11.548;2022-08-03T12:51:36;32.80;82.50
31391;DHT22;18022;45.492;11.548;2022-08-03T12:54:04;33.00;82.30
31391;DHT22;18022;45.492;11.548;2022-08-03T12:56:29;33.00;81.50
31391;DHT22;18022;45.492;11.548;2022-08-03T12:58:55;33.00;83.20
31391;DHT22;18022;45.492;11.548;2022-08-03T13:01:21;33.10;83.20
31391;DHT22;18022;45.492;11.548;2022-08-03T13:03:49;33.30;84.00
31391;DHT22;18022;45.492;11.548;2022-08-03T13:06:19;33.30;83.30
31391;DHT22;18022;45.492;11.548;2022-08-03T13:08:45;33.30;82.20
31391;DHT22;18022;45.492;11.548;2022-08-03T13:11:24;33.30;83.30
31391;DHT22;18022;45.492;11.548;2022-08-03T13:13:52;33.20;83.00
31391;DHT22;18022;45.492;11.548;2022-08-03T13:16:18;33.20;82.20
31391;DHT22;18022;45.492;11.548;2022-08-03T13:18:44;33.10;83.00
31391;DHT22;18022;45.492;11.548;2022-08-03T13:21:12;33.10;83.60
31391;DHT22;18022;45.492;11.548;2022-08-03T13:23:37;33.30;83.30
31391;DHT22;18022;45.492;11.548;2022-08-03T13:26:03;33.20;81.80
31391;DHT22;18022;45.492;11.548;2022-08-03T13:28:29;33.20;82.00
31391;DHT22;18022;45.492;11.548;2022-08-03T13:30:54;33.20;80.80
31391;DHT22;18022;45.492;11.548;2022-08-03T13:33:20;33.10;82.40
31391;DHT22;18022;45.492;11.548;2022-08-03T13:35:46;33.30;82.00
31391;DHT22;18022;45.492;11.548;2022-08-03T13:38:12;33.40;80.80
31391;DHT22;18022;45.492;11.548;2022-08-03T13:40:37;33.30;81.80
31391;DHT22;18022;45.492;11.548;2022-08-03T13:43:03;33.20;80.50
31391;DHT22;18022;45.492;11.548;2022-08-03T13:45:29;33.20;80.80
31391;DHT22;18022;45.492;11.548;2022-08-03T13:47:54;33.20;80.30
31391;DHT22;18022;45.492;11.548;2022-08-03T13:50:20;33.20;80.60
31391;DHT22;18022;45.492;11.548;2022-08-03T13:52:46;33.30;81.10
31391;DHT22;18022;45.492;11.548;2022-08-03T13:55:12;33.30;79.10
31391;DHT22;18022;45.492;11.548;2022-08-03T13:57:38;33.20;81.00
31391;DHT22;18022;45.492;11.548;2022-08-03T14:00:04;33.50;81.30
31391;DHT22;18022;45.492;11.548;2022-08-03T14:02:30;33.50;80.20
31391;DHT22;18022;45.492;11.548;2022-08-03T14:04:56;33.50;79.50
31391;DHT22;18022;45.492;11.548;2022-08-03T14:07:22;33.50;79.40
31391;DHT22;18022;45.492;11.548;2022-08-03T14:09:48;33.70;80.70
31391;DHT22;18022;45.492;11.548;2022-08-03T14:12:13;33.60;79.50
31391;DHT22;18022;45.492;11.548;2022-08-03T14:14:39;33.50;79.00
31391;DHT22;18022;45.492;11.548;2022-08-03T14:17:06;33.60;79.20
31391;DHT22;18022;45.492;11.548;2022-08-03T14:19:31;33.60;79.80
31391;DHT22;18022;45.492;11.548;2022-08-03T14:21:57;33.50;78.70
31391;DHT22;18022;45.492;11.548;2022-08-03T14:24:23;33.60;79.80
31391;DHT22;18022;45.492;11.548;2022-08-03T14:26:49;33.50;77.80
31391;DHT22;18022;45.492;11.548;2022-08-03T14:29:14;33.50;78.90
31391;DHT22;18022;45.492;11.548;2022-08-03T14:31:40;33.50;77.80
31391;DHT22;18022;45.492;11.548;2022-08-03T14:34:06;33.40;79.30
31391;DHT22;18022;45.492;11.548;2022-08-03T14:36:31;33.40;77.50
31391;DHT22;18022;45.492;11.548;2022-08-03T14:38:57;33.30;78.70
31391;DHT22;18022;45.492;11.548;2022-08-03T14:41:23;33.40;77.80
31391;DHT22;18022;45.492;11.548;2022-08-03T14:43:48;33.50;79.70
31391;DHT22;18022;45.492;11.548;2022-08-03T14:46:14;33.70;78.70
31391;DHT22;18022;45.492;11.548;2022-08-03T14:48:40;33.50;79.30
31391;DHT22;18022;45.492;11.548;2022-08-03T14:51:05;33.50;80.00
31391;DHT22;18022;45.492;11.548;2022-08-03T14:53:32;33.60;79.30
31391;DHT22;18022;45.492;11.548;2022-08-03T14:55:58;33.50;79.50
31391;DHT22;18022;45.492;11.548;2022-08-03T14:58:24;33.60;78.30
31391;DHT22;18022;45.492;11.548;2022-08-03T15:00:52;33.60;77.80
31391;DHT22;18022;45.492;11.548;2022-08-03T15:03:19;33.60;78.00
31391;DHT22;18022;45.492;11.548;2022-08-03T15:05:48;33.60;78.90
31391;DHT22;18022;45.492;11.548;2022-08-03T15:08:14;33.60;78.90
31391;DHT22;18022;45.492;11.548;2022-08-03T15:10:40;33.40;78.70
31391;DHT22;18022;45.492;11.548;2022-08-03T15:13:06;33.50;80.70
31391;DHT22;18022;45.492;11.548;2022-08-03T15:15:31;33.50;80.40
31391;DHT22;18022;45.492;11.548;2022-08-03T15:17:57;33.50;80.30
31391;DHT22;18022;45.492;11.548;2022-08-03T15:20:23;33.50;81.60
31391;DHT22;18022;45.492;11.548;2022-08-03T15:22:48;33.30;81.90
31391;DHT22;18022;45.492;11.548;2022-08-03T15:25:14;33.40;79.40
31391;DHT22;18022;45.492;11.548;2022-08-03T15:27:40;33.50;79.90
31391;DHT22;18022;45.492;11.548;2022-08-03T15:30:06;33.50;80.10
31391;DHT22;18022;45.492;11.548;2022-08-03T15:32:32;33.40;80.40
31391;DHT22;18022;45.492;11.548;2022-08-03T15:34:59;33.20;82.20
31391;DHT22;18022;45.492;11.548;2022-08-03T15:37:25;33.00;81.20
31391;DHT22;18022;45.492;11.548;2022-08-03T15:39:51;32.70;80.10
31391;DHT22;18022;45.492;11.548;2022-08-03T15:42:17;32.60;81.50
31391;DHT22;18022;45.492;11.548;2022-08-03T15:44:42;32.80;82.10
31391;DHT22;18022;45.492;11.548;2022-08-03T15:47:08;32.80;82.30
31391;DHT22;18022;45.492;11.548;2022-08-03T15:49:34;32.70;81.30
31391;DHT22;18022;45.492;11.548;2022-08-03T15:51:59;32.60;82.40
31391;DHT22;18022;45.492;11.548;2022-08-03T15:54:26;32.60;82.50
31391;DHT22;18022;45.492;11.548;2022-08-03T15:56:51;32.60;81.80
31391;DHT22;18022;45.492;11.548;2022-08-03T15:59:17;32.80;82.50
31391;DHT22;18022;45.492;11.548;2022-08-03T16:01:45;32.80;81.00